Time;durP1;ratioP1;P1;durP2;ratioP2;P2;SDS_P1;SDS_P2;PMS_P1;PMS_P2;Temp;Humidity;BMP_temperature;BMP_pressure;BME280_temperature;BME280_humidity;BME280_pressure;Samples;Min_cycle;Max_cycle;Signal;HPM_P1;HPM_P2
2024/03/29 00:00:28;;;;;;;9.70;4.53;;;;;;;-144.51;100.00;69251.94;5097161;28;20028;-79
2024/03/29 00:03:20;;;;;;;5.68;4.50;;;;;;;-144.51;100.00;69251.94;5103102;28;20044;-80
2024/03/29 00:06:18;;;;;;;4.75;3.95;;;;;;;-144.51;100.00;69251.94;5099471;28;20047;-80
2024/03/29 00:09:13;;;;;;;9.05;5.30;;;;;;;-144.51;100.00;69251.94;5095640;28;20028;-81
2024/03/29 00:12:06;;;;;;;5.88;4.28;;;;;;;-144.51;100.00;69251.94;5098309;28;20048;-81
2024/03/29 00:15:00;;;;;;;8.00;4.45;;;;;;;-144.51;100.00;69251.94;5084600;28;20032;-79
2024/03/29 00:17:55;;;;;;;8.60;4.53;;;;;;;-144.51;100.00;69251.94;5101875;28;20051;-81
2024/03/29 00:20:50;;;;;;;4.93;4.13;;;;;;;-144.51;100.00;69251.94;5101018;28;20051;-81
2024/03/29 00:23:44;;;;;;;9.95;4.50;;;;;;;-144.51;100.00;69251.94;5086595;28;20266;-81
2024/03/29 00:26:39;;;;;;;9.80;4.18;;;;;;;-144.51;100.00;69251.94;5089446;28;20032;-79
2024/03/29 00:29:34;;;;;;;4.00;3.37;;;;;;;-144.51;100.00;69251.94;5076823;28;20036;-78
2024/03/29 00:32:26;;;;;;;6.45;3.85;;;;;;;-144.51;100.00;69251.94;5065288;28;20660;-80
2024/03/29 00:35:20;;;;;;;5.47;3.70;;;;;;;-144.51;100.00;69251.94;5099064;28;20596;-79
2024/03/29 00:38:15;;;;;;;4.17;3.10;;;;;;;-144.51;100.00;69251.94;5100619;28;20048;-80
2024/03/29 00:41:09;;;;;;;3.53;2.83;;;;;;;-144.51;100.00;69251.94;5090057;28;20045;-80
2024/03/29 00:44:04;;;;;;;6.03;4.13;;;;;;;-144.51;100.00;69251.94;5096446;28;20301;-80
2024/03/29 00:46:56;;;;;;;4.23;3.50;;;;;;;-144.51;100.00;69251.94;5086550;28;20036;-80
2024/03/29 00:49:48;;;;;;;5.18;4.00;;;;;;;-144.51;100.00;69251.94;5094163;28;20627;-80
2024/03/29 00:52:47;;;;;;;6.00;4.00;;;;;;;-144.51;100.00;69251.94;5086202;28;20039;-79
2024/03/29 00:55:42;;;;;;;7.78;3.58;;;;;;;-144.51;100.00;69251.94;5098433;28;20056;-81
2024/03/29 00:58:34;;;;;;;6.50;3.85;;;;;;;-144.51;100.00;69251.94;5087797;28;20040;-81
2024/03/29 01:01:28;;;;;;;5.70;4.28;;;;;;;-144.51;100.00;69251.94;5098619;28;20039;-78
2024/03/29 01:04:23;;;;;;;5.23;3.53;;;;;;;-144.51;100.00;69251.94;5099335;28;20044;-79
2024/03/29 01:07:17;;;;;;;8.37;5.17;;;;;;;-144.51;100.00;69251.94;5092013;28;20039;-79
2024/03/29 01:10:12;;;;;;;5.27;3.20;;;;;;;-144.51;100.00;69251.94;5094542;28;20273;-79
2024/03/29 01:13:04;;;;;;;5.53;4.18;;;;;;;-144.51;100.00;69251.94;5095639;28;20266;-79
2024/03/29 01:15:59;;;;;;;11.27;4.85;;;;;;;-144.51;100.00;69251.94;5095569;28;20047;-78
2024/03/29 01:18:51;;;;;;;5.83;4.03;;;;;;;-144.51;100.00;69251.94;5099096;28;20040;-78
2024/03/29 01:21:45;;;;;;;5.38;3.83;;;;;;;-144.51;100.00;69251.94;5083602;28;20063;-79
2024/03/29 01:24:37;;;;;;;3.92;3.55;;;;;;;-144.51;100.00;69251.94;5082972;28;20036;-79
2024/03/29 01:27:32;;;;;;;7.95;3.95;;;;;;;-144.51;100.00;69251.94;5099056;28;20044;-78
2024/03/29 01:30:27;;;;;;;9.63;4.28;;;;;;;-144.51;100.00;69251.94;5093782;28;20036;-77
2024/03/29 01:33:21;;;;;;;5.10;4.38;;;;;;;-144.51;100.00;69251.94;5103048;28;20044;-78
2024/03/29 01:36:16;;;;;;;4.80;4.30;;;;;;;-144.51;100.00;69251.94;5083019;28;20045;-79
2024/03/29 01:39:10;;;;;;;7.93;5.20;;;;;;;-144.51;100.00;69251.94;5101317;28;20035;-78
2024/03/29 01:42:05;;;;;;;7.17;5.53;;;;;;;-144.51;100.00;69251.94;5102642;28;20036;-78
2024/03/29 01:44:59;;;;;;;6.73;5.20;;;;;;;-144.51;100.00;69251.94;5082225;28;20040;-77
2024/03/29 01:47:54;;;;;;;11.00;5.67;;;;;;;-144.51;100.00;69251.94;5081302;28;20032;-78
2024/03/29 01:50:49;;;;;;;13.73;8.07;;;;;;;-144.51;100.00;69251.94;5100843;28;20277;-79
2024/03/29 01:53:44;;;;;;;10.27;6.45;;;;;;;-144.51;100.00;69251.94;5087036;28;20040;-78
2024/03/29 01:56:39;;;;;;;10.93;6.07;;;;;;;-144.51;100.00;69251.94;5090052;28;20044;-77
2024/03/29 01:59:31;;;;;;;14.60;7.47;;;;;;;-144.51;100.00;69251.94;5102055;28;20032;-78
2024/03/29 02:02:27;;;;;;;9.25;6.82;;;;;;;-144.51;100.00;69251.94;5099984;28;20051;-79
2024/03/29 02:05:22;;;;;;;10.48;6.95;;;;;;;-144.51;100.00;69251.94;5097412;28;20036;-78
2024/03/29 02:08:16;;;;;;;6.30;5.38;;;;;;;-144.51;100.00;69251.94;5085652;28;20417;-79
2024/03/29 02:11:11;;;;;;;8.55;6.10;;;;;;;-144.51;100.00;69251.94;5089939;28;20037;-78
2024/03/29 02:14:05;;;;;;;9.38;7.40;;;;;;;-144.51;100.00;69251.94;5101929;28;20048;-78
2024/03/29 02:17:00;;;;;;;11.23;9.20;;;;;;;-144.51;100.00;69251.94;5091696;28;20049;-78
2024/03/29 02:19:54;;;;;;;8.85;7.15;;;;;;;-144.51;100.00;69251.94;5097405;28;20040;-80
2024/03/29 02:22:52;;;;;;;13.88;9.80;;;;;;;-144.51;100.00;69251.94;5095548;28;20509;-78
2024/03/29 02:25:44;;;;;;;14.43;10.32;;;;;;;-144.51;100.00;69251.94;5099996;28;20040;-79
2024/03/29 02:28:39;;;;;;;15.07;10.30;;;;;;;-144.51;100.00;69251.94;5088314;28;20040;-79
2024/03/29 02:31:33;;;;;;;14.48;11.70;;;;;;;-144.51;100.00;69251.94;5099908;28;20044;-78
2024/03/29 02:34:27;;;;;;;20.38;11.85;;;;;;;-144.51;100.00;69251.94;5097360;28;20051;-79
2024/03/29 02:37:22;;;;;;;22.65;12.10;;;;;;;-144.51;100.00;69251.94;5094535;28;20035;-81
2024/03/29 02:40:17;;;;;;;16.70;13.07;;;;;;;-144.51;100.00;69251.94;5084698;28;20032;-80
2024/03/29 02:43:12;;;;;;;18.50;13.10;;;;;;;-144.51;100.00;69251.94;5078576;28;20270;-81
2024/03/29 02:46:06;;;;;;;18.60;13.25;;;;;;;-144.51;100.00;69251.94;5101848;28;20489;-79
2024/03/29 02:49:00;;;;;;;18.38;14.23;;;;;;;-144.51;100.00;69251.94;5100647;28;20032;-80
2024/03/29 02:51:55;;;;;;;24.57;13.67;;;;;;;-144.51;100.00;69251.94;5096825;28;20044;-79
2024/03/29 02:54:50;;;;;;;23.15;14.32;;;;;;;-144.51;100.00;69251.94;5095705;28;20060;-81
2024/03/29 02:57:42;;;;;;;15.00;10.70;;;;;;;-144.51;100.00;69251.94;5099743;28;20037;-81
2024/03/29 03:00:38;;;;;;;18.05;13.77;;;;;;;-144.51;100.00;69251.94;5095040;28;20048;-80
2024/03/29 03:03:33;;;;;;;23.48;15.18;;;;;;;-144.51;100.00;69251.94;5103902;28;20044;-80
2024/03/29 03:06:27;;;;;;;23.73;15.68;;;;;;;-144.51;100.00;69251.94;5100072;28;20044;-79
2024/03/29 03:12:33;;;;;;;29.17;16.98;;;;;;;-144.51;100.00;69251.94;5096436;28;20036;-78
2024/03/29 03:15:28;;;;;;;19.63;11.85;;;;;;;-144.51;100.00;69251.94;5100295;28;20433;-79
2024/03/29 03:18:22;;;;;;;24.17;17.50;;;;;;;-144.51;100.00;69251.94;5097736;28;20040;-80
2024/03/29 03:21:17;;;;;;;24.13;15.87;;;;;;;-144.51;100.00;69251.94;5102326;28;20493;-79
2024/03/29 03:24:11;;;;;;;23.50;16.52;;;;;;;-144.51;100.00;69251.94;5102139;28;20489;-78
2024/03/29 03:27:03;;;;;;;22.33;16.60;;;;;;;-144.51;100.00;69251.94;5096536;28;20040;-79
2024/03/29 03:29:58;;;;;;;21.90;16.23;;;;;;;-144.51;100.00;69251.94;5102224;28;20513;-79
2024/03/29 03:32:56;;;;;;;25.25;16.55;;;;;;;-144.51;100.00;69251.94;5076989;28;20044;-79
2024/03/29 03:35:50;;;;;;;27.00;17.93;;;;;;;-144.51;100.00;69251.94;5094095;28;20044;-78
2024/03/29 03:38:42;;;;;;;26.10;18.23;;;;;;;-144.51;100.00;69251.94;5094534;28;20048;-78
2024/03/29 03:41:37;;;;;;;26.63;18.50;;;;;;;-144.51;100.00;69251.94;5092594;28;20032;-79
2024/03/29 03:44:31;;;;;;;26.42;19.13;;;;;;;-144.51;100.00;69251.94;5098916;28;20181;-80
2024/03/29 03:47:26;;;;;;;19.95;15.05;;;;;;;-144.51;100.00;69251.94;5092426;28;20419;-79
2024/03/29 03:50:18;;;;;;;33.50;19.55;;;;;;;-144.51;100.00;69251.94;5098276;28;20037;-80
2024/03/29 03:53:13;;;;;;;30.92;21.20;;;;;;;-144.51;100.00;69251.94;5097512;28;20048;-79
2024/03/29 03:56:07;;;;;;;23.97;15.93;;;;;;;-144.51;100.00;69251.94;5098045;28;20036;-79
2024/03/29 03:59:02;;;;;;;28.80;20.58;;;;;;;-144.51;100.00;69251.94;5080238;28;20041;-78
2024/03/29 04:01:56;;;;;;;32.85;21.65;;;;;;;-144.51;100.00;69251.94;5086301;28;20044;-78
2024/03/29 04:04:52;;;;;;;36.42;21.33;;;;;;;-144.51;100.00;69251.94;5093677;28;20820;-78
2024/03/29 04:07:47;;;;;;;29.70;20.15;;;;;;;-144.51;100.00;69251.94;5093202;28;20043;-80
2024/03/29 04:10:43;;;;;;;32.13;20.60;;;;;;;-144.51;100.00;69251.94;5086258;28;20032;-78
2024/03/29 04:13:38;;;;;;;32.03;21.95;;;;;;;-144.51;100.00;69251.94;5090513;28;20039;-77
2024/03/29 04:16:32;;;;;;;31.15;21.60;;;;;;;-144.51;100.00;69251.94;5094955;28;20044;-77
2024/03/29 04:19:27;;;;;;;30.13;20.85;;;;;;;-144.51;100.00;69251.94;5092771;28;20032;-79
2024/03/29 04:22:19;;;;;;;31.58;20.35;;;;;;;-144.51;100.00;69251.94;5095908;28;20048;-78
2024/03/29 04:25:14;;;;;;;28.08;19.85;;;;;;;-144.51;100.00;69251.94;5098796;28;20044;-78
2024/03/29 04:28:08;;;;;;;23.83;16.93;;;;;;;-144.51;100.00;69251.94;5099293;28;20040;-78
2024/03/29 04:31:06;;;;;;;30.80;19.25;;;;;;;-144.51;100.00;69251.94;5099084;28;20036;-79
2024/03/29 04:34:00;;;;;;;27.17;19.38;;;;;;;-144.51;100.00;69251.94;5088646;28;20499;-80
2024/03/29 04:36:55;;;;;;;28.70;18.63;;;;;;;-144.51;100.00;69251.94;5075029;28;20036;-79
2024/03/29 04:39:50;;;;;;;21.88;15.35;;;;;;;-144.51;100.00;69251.94;5100017;28;20278;-79
2024/03/29 04:42:40;;;;;;;23.40;15.07;;;;;;;-144.51;100.00;69251.94;5090758;28;20036;-78
2024/03/29 04:45:34;;;;;;;27.88;19.05;;;;;;;-144.51;100.00;69251.94;5089566;28;20040;-77
2024/03/29 04:48:29;;;;;;;30.00;18.97;;;;;;;-144.51;100.00;69251.94;5084867;28;20438;-78
2024/03/29 04:51:23;;;;;;;26.95;18.70;;;;;;;-144.51;100.00;69251.94;5095224;28;20028;-80
2024/03/29 04:54:18;;;;;;;19.48;13.45;;;;;;;-144.51;100.00;69251.94;5093925;28;20036;-79
2024/03/29 04:57:12;;;;;;;25.77;17.83;;;;;;;-144.51;100.00;69251.94;5093628;28;20052;-78
2024/03/29 05:00:07;;;;;;;22.08;14.18;;;;;;;-144.51;100.00;69251.94;5085894;28;20032;-78
2024/03/29 05:03:02;;;;;;;25.80;16.90;;;;;;;-144.51;100.00;69251.94;5098494;28;20460;-79
2024/03/29 05:05:57;;;;;;;20.38;13.50;;;;;;;-144.51;100.00;69251.94;5095592;28;20267;-77
2024/03/29 05:08:52;;;;;;;25.00;18.40;;;;;;;-144.51;100.00;69251.94;5081706;28;20060;-78
2024/03/29 05:11:46;;;;;;;25.20;16.60;;;;;;;-144.51;100.00;69251.94;5096474;28;20040;-78
2024/03/29 05:14:41;;;;;;;24.23;13.27;;;;;;;-144.51;100.00;69251.94;5091892;28;20262;-80
2024/03/29 05:17:36;;;;;;;22.75;16.75;;;;;;;-144.51;100.00;69251.94;5095792;28;20032;-79
2024/03/29 05:20:30;;;;;;;23.73;17.17;;;;;;;-144.51;100.00;69251.94;5100333;28;20074;-80
2024/03/29 05:23:25;;;;;;;23.92;17.42;;;;;;;-144.51;100.00;69251.94;5102707;28;20635;-78
2024/03/29 05:26:19;;;;;;;23.90;16.13;;;;;;;-144.51;100.00;69251.94;5107566;28;20405;-77
2024/03/29 05:29:14;;;;;;;30.58;19.15;;;;;;;-144.51;100.00;69251.94;5093775;28;20417;-77
2024/03/29 05:32:09;;;;;;;35.00;18.23;;;;;;;-144.51;100.00;69251.94;5092185;28;20036;-78
2024/03/29 05:34:59;;;;;;;34.30;18.67;;;;;;;-144.51;100.00;69251.94;5094719;28;20040;-76
2024/03/29 05:37:54;;;;;;;28.60;19.08;;;;;;;-144.51;100.00;69251.94;5087549;28;20036;-78
2024/03/29 05:40:46;;;;;;;31.90;19.43;;;;;;;-144.51;100.00;69251.94;5090367;28;20493;-77
2024/03/29 05:43:40;;;;;;;27.35;18.30;;;;;;;-144.51;100.00;69251.94;5095951;28;20524;-77
2024/03/29 05:46:40;;;;;;;29.30;19.63;;;;;;;-144.51;100.00;69251.94;5085256;28;20032;-78
2024/03/29 05:49:34;;;;;;;33.90;19.70;;;;;;;-144.51;100.00;69251.94;5088473;28;20040;-78
2024/03/29 05:52:29;;;;;;;23.10;14.93;;;;;;;-144.51;100.00;69251.94;5092894;28;20036;-78
2024/03/29 05:55:24;;;;;;;29.25;15.95;;;;;;;-144.51;100.00;69251.94;5097274;28;20040;-77
2024/03/29 05:58:21;;;;;;;23.58;14.13;;;;;;;-144.51;100.00;69251.94;5095506;28;20036;-77
2024/03/29 06:01:16;;;;;;;31.17;17.95;;;;;;;-144.51;100.00;69251.94;5091896;28;20032;-76
2024/03/29 06:04:15;;;;;;;25.13;14.87;;;;;;;-144.51;100.00;69251.94;5087937;28;20041;-77
2024/03/29 06:07:09;;;;;;;27.50;18.02;;;;;;;-144.51;100.00;69251.94;5093093;28;20441;-77
2024/03/29 06:10:04;;;;;;;26.10;17.27;;;;;;;-144.51;100.00;69251.94;5085233;28;20039;-79
2024/03/29 06:13:07;;;;;;;24.05;12.65;;;;;;;-144.51;100.00;69251.94;5083472;28;20246;-78
2024/03/29 06:19:12;;;;;;;31.10;18.38;;;;;;;-144.51;100.00;69251.94;5090521;28;20044;-77
2024/03/29 06:22:07;;;;;;;37.10;17.55;;;;;;;-144.51;100.00;69251.94;5091125;28;20048;-78
2024/03/29 06:25:04;;;;;;;23.38;16.08;;;;;;;-144.51;100.00;69251.94;5099097;28;20039;-78
2024/03/29 06:27:59;;;;;;;26.38;16.60;;;;;;;-144.51;100.00;69251.94;5090127;28;20032;-82
2024/03/29 06:30:59;;;;;;;56.50;19.13;;;;;;;-144.51;100.00;69251.94;5095189;28;20492;-81
2024/03/29 06:33:54;;;;;;;67.93;20.17;;;;;;;-144.51;100.00;69251.94;5094719;28;20040;-80
2024/03/29 06:36:46;;;;;;;35.90;14.47;;;;;;;-144.51;100.00;69251.94;5089487;28;20040;-80
2024/03/29 06:39:43;;;;;;;40.72;19.45;;;;;;;-144.51;100.00;69251.94;5090721;28;20409;-80
2024/03/29 06:42:35;;;;;;;25.38;15.43;;;;;;;-144.51;100.00;69251.94;5102407;28;20047;-79
2024/03/29 06:45:29;;;;;;;29.50;17.50;;;;;;;-144.51;100.00;69251.94;5101526;28;20040;-78
2024/03/29 06:48:24;;;;;;;19.50;12.43;;;;;;;-144.51;100.00;69251.94;5086126;28;20040;-77
2024/03/29 06:51:19;;;;;;;26.45;17.15;;;;;;;-144.51;100.00;69251.94;5089327;28;20509;-78
2024/03/29 06:54:14;;;;;;;28.75;16.10;;;;;;;-144.51;100.00;69251.94;5098215;28;20052;-79
2024/03/29 06:57:08;;;;;;;26.73;17.63;;;;;;;-144.51;100.00;69251.94;5082017;28;20043;-79
2024/03/29 07:00:03;;;;;;;22.52;15.50;;;;;;;-144.51;100.00;69251.94;5099176;28;20040;-79
2024/03/29 07:02:57;;;;;;;22.73;14.50;;;;;;;-144.51;100.00;69251.94;5090949;28;20040;-77
2024/03/29 07:05:52;;;;;;;22.87;15.67;;;;;;;-144.51;100.00;69251.94;5087641;28;20040;-80
2024/03/29 07:08:46;;;;;;;20.52;14.73;;;;;;;-144.51;100.00;69251.94;5097502;28;20405;-79
2024/03/29 07:11:41;;;;;;;22.08;13.52;;;;;;;-144.51;100.00;69251.94;5095053;28;20030;-79
2024/03/29 07:14:35;;;;;;;16.73;11.80;;;;;;;-144.51;100.00;69251.94;5099168;28;20664;-79
2024/03/29 07:17:27;;;;;;;21.40;15.50;;;;;;;-144.51;100.00;69251.94;5093395;28;20413;-79
2024/03/29 07:20:22;;;;;;;25.70;16.02;;;;;;;-144.51;100.00;69251.94;5093535;28;20055;-79
2024/03/29 07:23:16;;;;;;;27.80;16.33;;;;;;;-144.51;100.00;69251.94;5097220;28;20040;-79
2024/03/29 07:26:11;;;;;;;24.43;13.17;;;;;;;-144.51;100.00;69251.94;5095397;28;20274;-80
2024/03/29 07:29:06;;;;;;;29.05;15.98;;;;;;;-144.51;100.00;69251.94;5092315;28;20655;-80
2024/03/29 07:32:00;;;;;;;27.83;14.00;;;;;;;-144.51;100.00;69251.94;5095913;28;20500;-81
2024/03/29 07:34:55;;;;;;;21.27;13.37;;;;;;;-144.51;100.00;69251.94;5088956;28;20504;-82
2024/03/29 07:37:49;;;;;;;23.33;14.27;;;;;;;-144.51;100.00;69251.94;5097716;28;20043;-82
2024/03/29 07:40:47;;;;;;;18.48;12.82;;;;;;;-144.51;100.00;69251.94;5094649;28;20024;-82
2024/03/29 07:43:59;;;;;;;29.27;16.65;;;;;;;-144.51;100.00;69251.94;5092806;28;20044;-82
2024/03/29 07:46:51;;;;;;;19.95;14.45;;;;;;;-144.51;100.00;69251.94;5094114;28;20039;-81
2024/03/29 07:49:45;;;;;;;23.52;13.40;;;;;;;-144.51;100.00;69251.94;5088043;28;20409;-83
2024/03/29 07:52:40;;;;;;;25.17;13.33;;;;;;;-144.51;100.00;69251.94;5095774;28;20040;-82
2024/03/29 07:55:34;;;;;;;17.63;10.25;;;;;;;-144.51;100.00;69251.94;5096629;28;20035;-82
2024/03/29 07:58:30;;;;;;;18.48;12.30;;;;;;;-144.51;100.00;69251.94;5099848;28;20040;-81
2024/03/29 08:01:25;;;;;;;17.50;12.52;;;;;;;-144.51;100.00;69251.94;5095712;28;20036;-82
2024/03/29 08:04:17;;;;;;;24.52;13.95;;;;;;;-144.51;100.00;69251.94;5092112;28;20508;-82
2024/03/29 08:07:11;;;;;;;25.13;14.57;;;;;;;-144.51;100.00;69251.94;5094758;28;20040;-81
2024/03/29 08:10:06;;;;;;;18.17;10.63;;;;;;;-144.51;100.00;69251.94;5096499;28;20031;-84
2024/03/29 08:13:00;;;;;;;21.87;13.03;;;;;;;-144.51;100.00;69251.94;5098953;28;20036;-81
2024/03/29 08:16:03;;;;;;;17.70;12.37;;;;;;;-144.51;100.00;69251.94;5088428;28;20040;-82
2024/03/29 08:18:58;;;;;;;20.65;11.95;;;;;;;-144.51;100.00;69251.94;5094519;28;20412;-80
2024/03/29 08:21:50;;;;;;;20.50;11.38;;;;;;;-144.51;100.00;69251.94;5089742;28;20032;-83
2024/03/29 08:24:42;;;;;;;24.25;12.98;;;;;;;-144.51;100.00;69251.94;5093159;28;20655;-80
2024/03/29 08:27:34;;;;;;;27.40;14.02;;;;;;;-144.51;100.00;69251.94;5097749;28;20044;-81
2024/03/29 08:30:31;;;;;;;27.38;16.08;;;;;;;-144.51;100.00;69251.94;5087349;28;20032;-80
2024/03/29 08:33:25;;;;;;;17.00;10.57;;;;;;;-144.51;100.00;69251.94;5080018;28;20417;-80
2024/03/29 08:36:20;;;;;;;26.15;12.32;;;;;;;-144.51;100.00;69251.94;5083791;28;20036;-80
2024/03/29 08:39:11;;;;;;;17.43;9.43;;;;;;;-144.51;100.00;69251.94;5077525;28;20051;-83
2024/03/29 08:42:06;;;;;;;18.83;10.18;;;;;;;-144.51;100.00;69251.94;5083952;28;20278;-80
2024/03/29 08:45:00;;;;;;;15.40;9.43;;;;;;;-144.51;100.00;69251.94;5084142;28;20048;-83
2024/03/29 08:47:54;;;;;;;16.58;8.10;;;;;;;-144.51;100.00;69251.94;5072600;28;20036;-82
2024/03/29 08:50:46;;;;;;;18.08;10.30;;;;;;;-144.51;100.00;69251.94;5091290;28;20036;-81
2024/03/29 08:53:38;;;;;;;17.73;9.02;;;;;;;-144.51;100.00;69251.94;5091115;28;20040;-82
2024/03/29 08:56:36;;;;;;;15.88;9.50;;;;;;;-144.51;100.00;69251.94;5093313;28;20505;-82
2024/03/29 08:59:36;;;;;;;16.70;9.60;;;;;;;-144.51;100.00;69251.94;5095457;28;20035;-81
2024/03/29 09:02:30;;;;;;;12.30;7.88;;;;;;;-144.51;100.00;69251.94;5092605;28;20044;-81
2024/03/29 09:05:25;;;;;;;14.45;8.48;;;;;;;-144.51;100.00;69251.94;5104271;28;20682;-83
2024/03/29 09:08:16;;;;;;;15.32;7.35;;;;;;;-144.51;100.00;69251.94;5099989;28;20048;-80
2024/03/29 09:11:11;;;;;;;13.65;7.07;;;;;;;-144.51;100.00;69251.94;5096782;28;20035;-82
2024/03/29 09:14:03;;;;;;;8.20;5.95;;;;;;;-144.51;100.00;69251.94;5096377;28;20036;-84
2024/03/29 09:16:57;;;;;;;14.32;7.88;;;;;;;-144.51;100.00;69251.94;5083503;28;20638;-83
2024/03/29 09:19:56;;;;;;;23.00;7.77;;;;;;;-144.51;100.00;69251.94;5089477;28;20040;-82
2024/03/29 09:22:46;;;;;;;14.40;6.55;;;;;;;-144.51;100.00;69251.94;5095563;28;20052;-80
2024/03/29 09:25:41;;;;;;;11.95;6.50;;;;;;;-144.51;100.00;69251.94;5101553;28;20036;-82
2024/03/29 09:28:33;;;;;;;6.55;3.85;;;;;;;-144.51;100.00;69251.94;5092330;28;20047;-83
2024/03/29 09:31:28;;;;;;;10.27;5.28;;;;;;;-144.51;100.00;69251.94;5100656;28;20036;-83
2024/03/29 09:34:23;;;;;;;10.90;5.30;;;;;;;-144.51;100.00;69251.94;5091641;28;20037;-82
2024/03/29 09:37:18;;;;;;;10.93;5.28;;;;;;;-144.51;100.00;69251.94;5087346;28;20041;-82
2024/03/29 09:40:08;;;;;;;8.70;3.85;;;;;;;-144.51;100.00;69251.94;5087459;28;20032;-80
2024/03/29 09:43:02;;;;;;;13.57;4.80;;;;;;;-144.51;100.00;69251.94;5089895;28;20044;-80
2024/03/29 09:45:52;;;;;;;10.27;4.35;;;;;;;-144.51;100.00;69251.94;5089801;28;20036;-80
2024/03/29 09:48:50;;;;;;;12.90;4.40;;;;;;;-144.51;100.00;69251.94;5092380;28;20044;-81
2024/03/29 09:51:44;;;;;;;13.32;3.55;;;;;;;-144.51;100.00;69251.94;5098292;28;20036;-82
2024/03/29 09:54:32;;;;;;;14.57;4.00;;;;;;;-144.51;100.00;69251.94;5097836;28;20043;-82
2024/03/29 09:57:24;;;;;;;11.90;2.60;;;;;;;-144.51;100.00;69251.94;5098464;28;20036;-82
2024/03/29 10:02:16;;;;;;;10.80;3.30;;;;;;;;;;5102988;27;20457;-85
2024/03/29 10:05:06;;;;;;;12.13;1.95;;;;;;;;;;5086767;28;20418;-83
2024/03/29 10:07:56;;;;;;;9.30;2.67;;;;;;;;;;5079643;28;20040;-82
2024/03/29 10:10:51;;;;;;;20.35;2.65;;;;;;;;;;5085021;28;20025;-84
2024/03/29 10:13:41;;;;;;;17.02;1.95;;;;;;;;;;5081298;28;20379;-86
2024/03/29 10:16:33;;;;;;;9.75;2.78;;;;;;;;;;5085887;28;20036;-84
2024/03/29 10:19:25;;;;;;;13.52;2.65;;;;;;;;;;5086479;28;20028;-85
2024/03/29 10:22:09;;;;;;;9.93;1.50;;;;;;;;;;5077809;28;20044;-84
2024/03/29 10:25:01;;;;;;;6.65;2.38;;;;;;;;;;5071826;28;20033;-85
2024/03/29 10:27:53;;;;;;;10.20;2.25;;;;;;;;;;5072480;28;20037;-84
2024/03/29 10:30:45;;;;;;;10.88;2.17;;;;;;;;;;5077345;28;20025;-83
2024/03/29 10:33:37;;;;;;;11.88;2.10;;;;;;;;;;5083672;28;20045;-83
2024/03/29 10:36:29;;;;;;;16.92;2.33;;;;;;;;;;5086358;28;20036;-82
2024/03/29 10:39:18;;;;;;;8.60;1.98;;;;;;;;;;5099393;28;20481;-84
2024/03/29 10:42:11;;;;;;;9.00;1.95;;;;;;;;;;5081893;28;20040;-82
2024/03/29 10:45:04;;;;;;;12.13;2.33;;;;;;;;;;5084752;28;20032;-81
2024/03/29 10:47:53;;;;;;;17.67;3.90;;;;;;;;;;5080402;28;20024;-84
2024/03/29 10:50:46;;;;;;;11.38;2.55;;;;;;;;;;5070856;28;20036;-84
2024/03/29 10:53:41;;;;;;;7.13;1.73;;;;;;;;;;5095368;28;20028;-82
2024/03/29 10:56:33;;;;;;;14.30;1.98;;;;;;;;;;5079847;28;20045;-82
2024/03/29 10:59:27;;;;;;;11.45;2.92;;;;;;;;;;5081429;28;20041;-82
2024/03/29 11:02:25;;;;;;;6.55;1.48;;;;;;;;;;5085398;28;20490;-82
2024/03/29 11:05:15;;;;;;;6.90;1.75;;;;;;;;;;5088650;28;20037;-82
2024/03/29 11:08:08;;;;;;;9.18;2.30;;;;;;;;;;5084520;28;20024;-83
2024/03/29 11:11:01;;;;;;;9.52;3.00;;;;;;;;;;5091603;28;20445;-83
2024/03/29 11:13:53;;;;;;;6.20;1.60;;;;;;;;;;5076554;28;20045;-84
2024/03/29 11:16:45;;;;;;;8.13;2.60;;;;;;;;;;5066564;28;20505;-84
2024/03/29 11:19:32;;;;;;;10.85;1.70;;;;;;;;;;5078763;28;20392;-85
2024/03/29 11:22:23;;;;;;;10.55;2.45;;;;;;;;;;5081908;28;20045;-86
2024/03/29 11:25:13;;;;;;;6.68;1.77;;;;;;;;;;5082129;28;20037;-81
2024/03/29 11:28:13;;;;;;;12.77;2.38;;;;;;;;;;5071669;28;20029;-87
2024/03/29 11:31:09;;;;;;;12.75;2.10;;;;;;;;;;5061721;28;20033;-82
2024/03/29 11:34:01;;;;;;;6.15;1.77;;;;;;;;;;5069958;28;20044;-84
2024/03/29 11:36:53;;;;;;;7.60;1.92;;;;;;;;;;5061900;28;20040;-85
2024/03/29 11:39:49;;;;;;;10.85;1.77;;;;;;;;;;5071384;28;20029;-86
2024/03/29 11:42:49;;;;;;;10.88;1.40;;;;;;;;;;5059692;28;20036;-85
2024/03/29 11:45:38;;;;;;;11.35;3.30;;;;;;;;;;5058740;28;20029;-85
2024/03/29 11:48:31;;;;;;;9.32;1.45;;;;;;;;;;5081933;28;20044;-84
2024/03/29 11:51:23;;;;;;;14.95;2.65;;;;;;;;;;5067967;28;20032;-83
2024/03/29 11:54:15;;;;;;;7.40;1.73;;;;;;;;;;5077106;28;20655;-83
2024/03/29 11:57:07;;;;;;;10.15;3.63;;;;;;;;;;5064826;28;20040;-84
2024/03/29 11:59:59;;;;;;;11.00;2.08;;;;;;;;;;5066553;28;20037;-83
2024/03/29 12:02:51;;;;;;;16.90;2.25;;;;;;;;;;5058667;28;20040;-84
2024/03/29 12:05:42;;;;;;;6.70;1.73;;;;;;;;;;5074286;28;20391;-85
2024/03/29 12:08:34;;;;;;;8.63;2.40;;;;;;;;;;5070562;28;20375;-85
2024/03/29 12:11:28;;;;;;;5.50;1.27;;;;;;;;;;5069073;28;20036;-83
2024/03/29 12:14:18;;;;;;;12.23;2.00;;;;;;;;;;5073143;28;20028;-83
2024/03/29 12:17:16;;;;;;;9.77;1.55;;;;;;;;;;5066676;28;20036;-84
2024/03/29 12:20:11;;;;;;;10.82;2.58;;;;;;;;;;5064318;28;20044;-86
2024/03/29 12:23:06;;;;;;;14.55;2.33;;;;;;;;;;5065087;28;20486;-84
2024/03/29 12:25:57;;;;;;;10.18;2.88;;;;;;;;;;5061409;28;20380;-83
2024/03/29 12:28:49;;;;;;;7.63;1.58;;;;;;;;;;5057798;28;20029;-83
2024/03/29 12:31:38;;;;;;;13.80;2.65;;;;;;;;;;5076115;28;20033;-85
2024/03/29 12:34:30;;;;;;;10.63;2.28;;;;;;;;;;5074812;28;20032;-85
2024/03/29 12:37:23;;;;;;;10.27;1.83;;;;;;;;;;5072445;28;20028;-83
2024/03/29 12:40:15;;;;;;;10.38;2.15;;;;;;;;;;5075711;28;20040;-83
2024/03/29 12:43:02;;;;;;;5.60;1.45;;;;;;;;;;5065510;28;20103;-85
2024/03/29 12:45:54;;;;;;;9.32;2.20;;;;;;;;;;5062959;28;20025;-82
2024/03/29 12:48:46;;;;;;;8.75;2.08;;;;;;;;;;5075152;28;20025;-84
2024/03/29 12:51:38;;;;;;;5.28;1.85;;;;;;;;;;5066274;28;20419;-84
2024/03/29 12:54:25;;;;;;;14.02;5.07;;;;;;;;;;5074190;28;20410;-84
2024/03/29 12:57:17;;;;;;;10.73;2.10;;;;;;;;;;5053040;28;20045;-81
2024/03/29 13:00:09;;;;;;;9.73;2.75;;;;;;;;;;5063495;28;20045;-82
2024/03/29 13:03:01;;;;;;;14.23;2.28;;;;;;;;;;5069073;28;20033;-83
2024/03/29 13:05:53;;;;;;;16.45;2.88;;;;;;;;;;5080835;28;20024;-84
2024/03/29 13:08:45;;;;;;;4.50;1.00;;;;;;;;;;5063608;28;20025;-84
2024/03/29 13:11:37;;;;;;;12.38;1.40;;;;;;;;;;5078425;28;20048;-83
2024/03/29 13:14:27;;;;;;;8.80;1.52;;;;;;;;;;5074802;28;20045;-83
2024/03/29 13:17:16;;;;;;;10.65;2.35;;;;;;;;;;5076720;28;20045;-84
2024/03/29 13:20:06;;;;;;;6.35;1.50;;;;;;;;;;5079257;28;20390;-83
2024/03/29 13:22:58;;;;;;;9.55;1.92;;;;;;;;;;5076780;28;20037;-85
2024/03/29 13:25:47;;;;;;;14.32;2.33;;;;;;;;;;5064364;28;20497;-85
2024/03/29 13:28:35;;;;;;;13.32;2.42;;;;;;;;;;5078514;28;20033;-85
2024/03/29 13:31:25;;;;;;;8.57;2.40;;;;;;;;;;5066811;28;20037;-84
2024/03/29 13:34:16;;;;;;;10.55;2.53;;;;;;;;;;5079318;28;20058;-85
2024/03/29 13:37:06;;;;;;;18.17;2.45;;;;;;;;;;5069187;28;20387;-86
2024/03/29 13:39:57;;;;;;;10.43;1.95;;;;;;;;;;5057429;28;20391;-84
2024/03/29 13:42:49;;;;;;;7.70;1.95;;;;;;;;;;5054991;28;20036;-84
2024/03/29 13:45:40;;;;;;;14.25;3.65;;;;;;;;;;5071718;28;20033;-87
2024/03/29 13:48:27;;;;;;;19.35;2.38;;;;;;;;;;5067507;28;20033;-86
2024/03/29 13:51:17;;;;;;;9.80;2.35;;;;;;;;;;5069689;28;20041;-85
2024/03/29 13:54:09;;;;;;;5.22;1.70;;;;;;;;;;5064721;28;20044;-84
2024/03/29 13:57:01;;;;;;;5.22;1.48;;;;;;;;;;5074234;28;20032;-84
2024/03/29 13:59:53;;;;;;;9.05;1.40;;;;;;;;;;5074522;28;20033;-83
2024/03/29 14:02:45;;;;;;;13.25;2.45;;;;;;;;;;5072377;28;20036;-87
2024/03/29 14:05:37;;;;;;;5.68;1.35;;;;;;;;;;5073295;28;20032;-87